createdAt,value
2022-12-23T00:01:27.372Z,5.41
2022-12-23T00:03:57.356Z,5.47
2022-12-23T00:06:25.312Z,5.46
2022-12-23T00:08:58.362Z,5.46
2022-12-23T00:11:27.005Z,5.46
2022-12-23T00:14:18.453Z,5.46
2022-12-23T00:16:49.239Z,5.45
2022-12-23T00:19:16.411Z,5.44
2022-12-23T00:21:43.631Z,5.45
2022-12-23T00:24:11.443Z,5.42
2022-12-23T00:26:38.666Z,5.41
2022-12-23T00:29:06.072Z,5.43
2022-12-23T00:31:33.257Z,5.40
2022-12-23T00:34:00.401Z,5.45
2022-12-23T00:36:29.631Z,5.42
2022-12-23T00:39:16.598Z,5.57
2022-12-23T00:42:02.631Z,5.49
2022-12-23T00:44:30.024Z,5.42
2022-12-23T00:46:57.147Z,5.42
2022-12-23T00:49:44.716Z,5.43
2022-12-23T00:52:13.251Z,5.43
2022-12-23T00:54:40.612Z,5.45
2022-12-23T00:57:07.795Z,5.46
2022-12-23T00:59:34.931Z,5.45
2022-12-23T01:02:20.823Z,5.42
2022-12-23T01:05:06.540Z,5.42
2022-12-23T01:07:33.643Z,5.41
2022-12-23T01:10:00.720Z,5.41
2022-12-23T01:12:27.858Z,5.40
2022-12-23T01:14:55.097Z,5.41
2022-12-23T01:17:22.358Z,5.43
2022-12-23T01:19:49.764Z,5.42
2022-12-23T01:22:16.833Z,5.44
2022-12-23T01:24:44.000Z,5.45
2022-12-23T01:27:11.148Z,5.47
2022-12-23T01:29:38.335Z,5.47
2022-12-23T01:32:05.549Z,5.45
2022-12-23T01:34:36.691Z,5.47
2022-12-23T01:37:05.017Z,5.50
2022-12-23T01:39:32.095Z,5.52
2022-12-23T01:42:17.866Z,5.52
2022-12-23T01:44:49.240Z,5.53
2022-12-23T01:47:22.784Z,5.52
2022-12-23T01:49:51.161Z,5.48
2022-12-23T01:52:19.355Z,5.47
2022-12-23T01:54:47.680Z,5.48
2022-12-23T01:57:14.894Z,5.47
2022-12-23T02:00:01.368Z,5.48
2022-12-23T02:02:48.475Z,5.44
2022-12-23T02:05:16.697Z,5.42
2022-12-23T02:08:02.514Z,5.44
2022-12-23T02:10:36.758Z,5.45
2022-12-23T02:13:15.283Z,5.46
2022-12-23T02:16:11.286Z,5.52
2022-12-23T02:18:44.557Z,5.58
2022-12-23T02:21:21.338Z,5.64
2022-12-23T02:24:03.906Z,5.63
2022-12-23T02:26:43.477Z,5.62
2022-12-23T02:29:34.400Z,5.63
2022-12-23T02:32:15.194Z,5.72
2022-12-23T02:34:56.492Z,5.68
2022-12-23T02:37:29.218Z,5.72
2022-12-23T02:40:04.524Z,5.80
2022-12-23T02:42:32.774Z,5.77
2022-12-23T02:45:03.431Z,5.70
2022-12-23T02:47:35.929Z,5.70
2022-12-23T02:50:07.302Z,5.64
2022-12-23T02:52:35.834Z,5.65
2022-12-23T02:55:10.199Z,5.66
2022-12-23T02:57:39.114Z,5.68
2022-12-23T03:00:06.696Z,5.64
2022-12-23T03:02:38.586Z,5.65
2022-12-23T03:05:06.772Z,5.70
2022-12-23T03:07:38.097Z,5.70
2022-12-23T03:10:40.774Z,5.67
2022-12-23T03:13:07.777Z,5.66
2022-12-23T03:15:41.282Z,5.67
2022-12-23T03:18:30.699Z,5.67
2022-12-23T03:21:06.438Z,5.73
2022-12-23T03:23:49.140Z,5.76
2022-12-23T03:26:22.361Z,5.70
2022-12-23T03:28:53.491Z,5.71
2022-12-23T03:31:24.786Z,5.68
2022-12-23T03:34:02.037Z,5.72
2022-12-23T03:36:34.839Z,5.72
2022-12-23T03:39:03.466Z,5.77
2022-12-23T03:41:33.547Z,5.86
2022-12-23T03:44:04.111Z,5.77
2022-12-23T03:46:34.668Z,5.75
2022-12-23T03:49:06.360Z,5.73
2022-12-23T03:51:38.487Z,5.70
2022-12-23T03:54:09.827Z,5.68
2022-12-23T03:56:45.791Z,5.71
2022-12-23T03:59:17.920Z,5.73
2022-12-23T04:01:54.452Z,5.89
2022-12-23T04:04:27.299Z,5.83
2022-12-23T04:06:59.798Z,5.99
2022-12-23T04:09:28.721Z,5.85
2022-12-23T04:11:58.216Z,5.78
2022-12-23T04:14:25.380Z,5.72
2022-12-23T04:16:58.394Z,5.67
2022-12-23T04:19:25.740Z,5.65
2022-12-23T04:21:57.085Z,5.65
2022-12-23T04:24:24.301Z,5.64
2022-12-23T04:26:51.564Z,5.66
2022-12-23T04:29:18.800Z,5.60
2022-12-23T04:31:45.930Z,5.61
2022-12-23T04:34:13.231Z,5.63
2022-12-23T04:36:40.313Z,5.63
2022-12-23T04:39:07.477Z,5.64
2022-12-23T04:41:34.676Z,5.61
2022-12-23T04:44:01.753Z,5.55
2022-12-23T04:46:28.996Z,5.56
2022-12-23T04:48:56.903Z,5.56
2022-12-23T04:51:24.053Z,5.57
2022-12-23T04:53:51.281Z,5.53
2022-12-23T04:56:18.390Z,5.51
2022-12-23T04:58:45.494Z,5.50
2022-12-23T05:01:12.853Z,5.53
2022-12-23T05:03:40.733Z,5.53
2022-12-23T05:06:08.101Z,5.55
2022-12-23T05:08:35.155Z,5.49
2022-12-23T05:11:02.250Z,5.46
2022-12-23T05:13:29.471Z,5.43
2022-12-23T05:15:56.627Z,5.37
2022-12-23T05:18:24.023Z,5.42
2022-12-23T05:20:51.450Z,5.44
2022-12-23T05:23:20.215Z,5.45
2022-12-23T05:25:53.039Z,5.43
2022-12-23T05:28:21.538Z,5.47
2022-12-23T05:30:48.802Z,5.48
2022-12-23T05:33:16.400Z,5.48
2022-12-23T05:35:43.665Z,5.49
2022-12-23T05:38:10.800Z,5.47
2022-12-23T05:40:37.987Z,5.49
2022-12-23T05:43:05.255Z,5.57
2022-12-23T05:45:34.904Z,5.58
2022-12-23T05:48:02.156Z,5.61
2022-12-23T05:50:29.184Z,5.64
2022-12-23T05:52:57.667Z,5.65
2022-12-23T05:55:25.356Z,5.72
2022-12-23T05:57:52.915Z,5.68
2022-12-23T06:00:20.121Z,5.65
2022-12-23T06:02:53.278Z,5.63
2022-12-23T06:05:21.610Z,5.63
2022-12-23T06:07:48.751Z,5.67
2022-12-23T06:10:15.788Z,5.66
2022-12-23T06:12:42.862Z,5.67
2022-12-23T06:15:10.085Z,5.65
2022-12-23T06:17:37.225Z,5.63
2022-12-23T06:20:04.732Z,5.66
2022-12-23T06:22:31.866Z,5.64
2022-12-23T06:24:58.922Z,5.65
2022-12-23T06:27:26.130Z,5.67
2022-12-23T06:29:53.341Z,5.66
2022-12-23T06:32:20.307Z,5.65
2022-12-23T06:34:47.311Z,5.68
2022-12-23T06:37:14.387Z,5.67
2022-12-23T06:39:41.429Z,5.67
2022-12-23T06:42:08.601Z,5.66
2022-12-23T06:44:35.601Z,5.86
2022-12-23T06:47:02.674Z,5.75
2022-12-23T06:49:29.725Z,5.69
2022-12-23T06:51:56.841Z,5.64
2022-12-23T06:54:23.839Z,5.66
2022-12-23T06:56:50.860Z,5.58
2022-12-23T06:59:17.904Z,5.59
2022-12-23T07:01:45.061Z,5.51
2022-12-23T07:04:12.128Z,5.51
2022-12-23T07:06:39.721Z,5.47
2022-12-23T07:09:07.326Z,5.43
2022-12-23T07:11:34.786Z,5.44
2022-12-23T07:14:01.773Z,5.48
2022-12-23T07:16:28.970Z,5.40
2022-12-23T07:18:56.121Z,5.41
2022-12-23T07:21:29.096Z,5.41
2022-12-23T07:23:56.831Z,5.38
2022-12-23T07:26:23.884Z,5.36
2022-12-23T07:28:50.871Z,5.38
2022-12-23T07:31:17.896Z,5.40
2022-12-23T07:33:45.073Z,5.41
2022-12-23T07:36:12.134Z,5.47
2022-12-23T07:38:39.159Z,5.43
2022-12-23T07:41:06.122Z,5.41
2022-12-23T07:43:33.300Z,5.42
2022-12-23T07:46:05.830Z,5.45
2022-12-23T07:48:32.897Z,5.48
2022-12-23T07:51:00.667Z,5.52
2022-12-23T07:53:27.834Z,5.46
2022-12-23T07:55:56.878Z,5.46
2022-12-23T07:58:24.601Z,5.46
2022-12-23T08:00:58.448Z,5.47
2022-12-23T08:03:25.606Z,5.49
2022-12-23T08:06:15.157Z,5.47
2022-12-23T08:08:43.593Z,5.46
2022-12-23T08:11:11.149Z,5.46
2022-12-23T08:13:39.906Z,5.48
2022-12-23T08:16:07.562Z,5.48
2022-12-23T08:18:35.813Z,5.46
2022-12-23T08:21:04.879Z,5.51
2022-12-23T08:23:32.340Z,5.51
2022-12-23T08:26:04.396Z,5.52
2022-12-23T08:28:31.945Z,5.56
2022-12-23T08:31:06.777Z,5.58
2022-12-23T08:33:34.980Z,5.62
2022-12-23T08:36:02.441Z,5.64
2022-12-23T08:38:29.507Z,5.65
2022-12-23T08:40:57.446Z,5.66
2022-12-23T08:43:27.626Z,5.68
2022-12-23T08:45:57.458Z,5.68
2022-12-23T08:48:24.485Z,5.69
2022-12-23T08:50:51.561Z,5.70
2022-12-23T08:53:18.613Z,5.72
2022-12-23T08:55:47.100Z,5.75
2022-12-23T08:58:15.163Z,5.80
2022-12-23T09:00:42.392Z,5.83
2022-12-23T09:03:09.657Z,5.84
2022-12-23T09:05:41.140Z,5.83
2022-12-23T09:08:08.681Z,5.87
2022-12-23T09:10:40.538Z,5.90
2022-12-23T09:13:07.733Z,5.91
2022-12-23T09:15:38.710Z,5.91
2022-12-23T09:18:06.052Z,5.94
2022-12-23T09:20:33.091Z,5.92
2022-12-23T09:23:01.235Z,5.94
2022-12-23T09:25:28.528Z,5.96
2022-12-23T09:27:55.735Z,6.04
2022-12-23T09:30:22.803Z,6.06
2022-12-23T09:32:50.032Z,6.15
2022-12-23T09:35:17.283Z,6.13
2022-12-23T09:37:44.333Z,6.13
2022-12-23T09:40:12.485Z,6.18
2022-12-23T09:42:45.358Z,6.19
2022-12-23T09:45:20.124Z,6.23
2022-12-23T09:47:47.480Z,6.30
2022-12-23T09:50:17.405Z,6.61
2022-12-23T09:52:54.092Z,6.48
2022-12-23T09:55:23.685Z,6.70
2022-12-23T09:58:01.010Z,6.83
2022-12-23T10:00:39.660Z,6.98
2022-12-23T10:03:28.851Z,6.93
2022-12-23T10:06:15.005Z,7.04
2022-12-23T10:08:44.911Z,7.10
2022-12-23T10:11:14.995Z,7.01
2022-12-23T10:13:45.280Z,7.11
2022-12-23T10:16:20.388Z,7.01
2022-12-23T10:18:57.397Z,6.89
2022-12-23T10:21:24.374Z,6.86
2022-12-23T10:23:52.449Z,7.09
2022-12-23T10:26:34.532Z,7.13
2022-12-23T10:29:18.746Z,6.97
2022-12-23T10:31:56.693Z,6.89
2022-12-23T10:34:56.103Z,6.90
2022-12-23T10:37:32.308Z,6.98
2022-12-23T10:40:18.174Z,7.09
2022-12-23T10:42:57.420Z,7.32
2022-12-23T10:45:27.318Z,7.04
2022-12-23T10:47:54.358Z,7.06
2022-12-23T10:50:40.292Z,7.02
2022-12-23T10:53:12.417Z,7.01
2022-12-23T10:55:39.796Z,7.00
2022-12-23T10:58:08.862Z,7.09
2022-12-23T11:00:38.762Z,7.21
2022-12-23T11:03:20.752Z,7.25
2022-12-23T11:05:49.609Z,7.25
2022-12-23T11:08:17.305Z,7.51
2022-12-23T11:10:44.894Z,7.57
2022-12-23T11:13:22.694Z,7.41
2022-12-23T11:15:49.848Z,7.30
2022-12-23T11:18:18.592Z,7.27
2022-12-23T11:20:48.513Z,7.22
2022-12-23T11:23:25.863Z,7.31
2022-12-23T11:26:06.353Z,7.39
2022-12-23T11:28:35.447Z,7.37
2022-12-23T11:31:14.589Z,7.32
2022-12-23T11:33:46.698Z,7.30
2022-12-23T11:36:13.761Z,7.31
2022-12-23T11:38:50.003Z,7.30
2022-12-23T11:41:27.788Z,7.24
2022-12-23T11:44:00.702Z,7.20
2022-12-23T11:46:29.464Z,7.22
2022-12-23T11:49:15.348Z,7.35
2022-12-23T11:51:43.740Z,7.40
2022-12-23T11:54:21.010Z,7.37
2022-12-23T11:56:50.525Z,7.33
2022-12-23T11:59:29.912Z,7.35
2022-12-23T12:01:59.045Z,7.48
2022-12-23T12:04:27.646Z,7.62
2022-12-23T12:06:56.869Z,7.51
2022-12-23T12:09:24.885Z,7.54
2022-12-23T12:11:54.316Z,7.57
2022-12-23T12:14:31.121Z,7.47
2022-12-23T12:17:03.925Z,7.49
2022-12-23T12:19:57.452Z,7.57
2022-12-23T12:22:35.618Z,7.81
2022-12-23T12:25:32.971Z,7.79
2022-12-23T12:28:04.803Z,7.64
2022-12-23T12:30:34.337Z,7.62
2022-12-23T12:33:11.831Z,7.71
2022-12-23T12:35:45.590Z,7.91
2022-12-23T12:38:18.786Z,8.10
2022-12-23T12:40:49.669Z,7.84
2022-12-23T12:43:16.824Z,7.72
2022-12-23T12:45:48.537Z,7.67
2022-12-23T12:48:25.218Z,7.64
2022-12-23T12:51:07.802Z,7.69
2022-12-23T12:53:35.576Z,7.67
2022-12-23T12:56:10.503Z,7.82
2022-12-23T12:58:38.414Z,7.91
2022-12-23T13:01:22.894Z,8.07
2022-12-23T13:04:08.884Z,8.02
2022-12-23T13:07:14.768Z,7.96
2022-12-23T13:09:54.546Z,8.03
2022-12-23T13:12:30.515Z,7.92
2022-12-23T13:15:19.267Z,7.93
2022-12-23T13:17:53.491Z,8.18
2022-12-23T13:20:29.699Z,7.94
2022-12-23T13:23:20.729Z,7.80
2022-12-23T13:25:52.352Z,8.08
2022-12-23T13:28:31.942Z,8.17
2022-12-23T13:31:12.591Z,8.37
2022-12-23T13:33:39.927Z,8.39
2022-12-23T13:36:25.249Z,8.27
2022-12-23T13:38:58.573Z,8.00
2022-12-23T13:41:31.117Z,8.02
2022-12-23T13:44:00.207Z,7.92
2022-12-23T13:46:27.370Z,7.85
2022-12-23T13:48:59.888Z,7.88
2022-12-23T13:51:34.988Z,7.87
2022-12-23T13:54:15.618Z,7.87
2022-12-23T13:56:45.123Z,7.87
2022-12-23T13:59:14.408Z,7.96
2022-12-23T14:01:41.927Z,7.93
2022-12-23T14:04:29.226Z,7.96
2022-12-23T14:07:17.948Z,7.94
2022-12-23T14:09:47.658Z,7.83
2022-12-23T14:12:35.624Z,7.85
2022-12-23T14:15:02.779Z,7.82
2022-12-23T14:17:46.177Z,7.81
2022-12-23T14:20:19.358Z,7.80
2022-12-23T14:23:05.463Z,7.71
2022-12-23T14:25:38.602Z,7.76
2022-12-23T14:28:18.210Z,7.80
2022-12-23T14:30:46.141Z,7.75
2022-12-23T14:33:29.219Z,7.67
2022-12-23T14:35:58.275Z,7.60
2022-12-23T14:38:28.356Z,7.58
2022-12-23T14:40:59.157Z,7.59
2022-12-23T14:43:40.424Z,7.61
2022-12-23T14:46:22.930Z,7.67
2022-12-23T14:48:59.604Z,7.65
2022-12-23T14:51:38.826Z,7.64
2022-12-23T14:54:12.628Z,7.58
2022-12-23T14:56:43.452Z,7.56
2022-12-23T14:59:29.011Z,7.58
2022-12-23T15:02:03.250Z,7.62
2022-12-23T15:04:37.681Z,7.70
2022-12-23T15:07:07.108Z,7.55
2022-12-23T15:09:40.213Z,7.59
2022-12-23T15:12:30.395Z,7.56
2022-12-23T15:14:59.961Z,7.44
2022-12-23T15:17:29.606Z,7.42
2022-12-23T15:20:15.884Z,7.35
2022-12-23T15:22:44.915Z,7.27
2022-12-23T15:25:21.739Z,7.20
2022-12-23T15:27:49.321Z,7.17
2022-12-23T15:30:17.399Z,7.07
2022-12-23T15:32:45.886Z,7.01
2022-12-23T15:35:14.839Z,6.76
2022-12-23T15:37:41.889Z,6.67
2022-12-23T15:40:23.219Z,6.66
2022-12-23T15:42:50.394Z,6.66
2022-12-23T15:45:21.904Z,6.56
2022-12-23T15:47:49.929Z,6.38
2022-12-23T15:50:17.920Z,6.26
2022-12-23T15:52:46.341Z,6.12
2022-12-23T15:55:19.686Z,6.06
2022-12-23T15:57:50.442Z,6.03
2022-12-23T16:00:22.737Z,6.02
2022-12-23T16:03:11.920Z,5.95
2022-12-23T16:05:38.620Z,5.75
2022-12-23T16:08:11.683Z,5.68
2022-12-23T16:10:40.457Z,5.66
2022-12-23T16:13:18.531Z,5.60
2022-12-23T16:15:46.178Z,5.51
2022-12-23T16:18:14.915Z,5.62
2022-12-23T16:20:46.800Z,5.63
2022-12-23T16:23:14.499Z,5.60
2022-12-23T16:25:50.119Z,5.65
2022-12-23T16:28:24.259Z,5.66
2022-12-23T16:30:54.379Z,5.72
2022-12-23T16:33:30.478Z,5.70
2022-12-23T16:36:14.216Z,5.87
2022-12-23T16:38:41.820Z,5.87
2022-12-23T16:41:09.080Z,5.86
2022-12-23T16:43:36.191Z,5.91
2022-12-23T16:46:03.493Z,5.92
2022-12-23T16:48:39.284Z,5.95
2022-12-23T16:51:14.052Z,5.95
2022-12-23T16:53:41.644Z,5.97
2022-12-23T16:56:12.900Z,6.02
2022-12-23T16:58:40.139Z,6.02
2022-12-23T17:01:07.626Z,6.06
2022-12-23T17:03:34.970Z,6.07
2022-12-23T17:06:02.071Z,6.11
2022-12-23T17:08:29.203Z,6.10
2022-12-23T17:10:56.929Z,6.20
2022-12-23T17:13:24.048Z,6.23
2022-12-23T17:15:51.184Z,6.25
2022-12-23T17:18:18.705Z,6.21
2022-12-23T17:20:47.266Z,6.17
2022-12-23T17:23:20.740Z,6.12
2022-12-23T17:25:48.643Z,6.12
2022-12-23T17:28:15.817Z,6.05
2022-12-23T17:30:43.141Z,6.03
2022-12-23T17:33:16.243Z,5.98
2022-12-23T17:35:43.418Z,5.97
2022-12-23T17:38:13.224Z,5.94
2022-12-23T17:40:40.588Z,5.94
2022-12-23T17:43:15.487Z,5.87
2022-12-23T17:45:42.743Z,5.87
2022-12-23T17:48:20.114Z,5.92
2022-12-23T17:50:49.732Z,5.97
2022-12-23T17:53:18.068Z,5.91
2022-12-23T17:55:45.609Z,5.89
2022-12-23T17:58:14.095Z,5.92
2022-12-23T18:00:41.540Z,5.87
2022-12-23T18:03:20.398Z,5.89
2022-12-23T18:05:47.530Z,5.92
2022-12-23T18:08:14.761Z,5.95
2022-12-23T18:10:41.832Z,5.95
2022-12-23T18:13:13.982Z,5.98
2022-12-23T18:15:42.578Z,6.10
2022-12-23T18:18:15.917Z,6.13
2022-12-23T18:20:47.789Z,6.10
2022-12-23T18:23:16.815Z,6.10
2022-12-23T18:25:44.290Z,6.16
2022-12-23T18:28:11.712Z,6.14
2022-12-23T18:31:04.225Z,6.09
2022-12-23T18:33:31.711Z,6.10
2022-12-23T18:35:58.892Z,6.03
2022-12-23T18:38:26.074Z,6.01
2022-12-23T18:40:54.945Z,5.97
2022-12-23T18:43:24.182Z,5.94
2022-12-23T18:45:53.498Z,5.89
2022-12-23T18:48:21.874Z,5.89
2022-12-23T18:50:49.033Z,5.89
2022-12-23T18:53:23.815Z,5.89
2022-12-23T18:55:52.715Z,5.90
2022-12-23T18:58:20.365Z,5.92
2022-12-23T19:00:48.277Z,5.92
2022-12-23T19:03:22.000Z,5.92
2022-12-23T19:05:49.905Z,5.97
2022-12-23T19:08:23.609Z,5.98
2022-12-23T19:10:54.228Z,5.98
2022-12-23T19:13:21.981Z,5.99
2022-12-23T19:15:49.728Z,6.03
2022-12-23T19:18:19.325Z,6.04
2022-12-23T19:20:47.332Z,6.05
2022-12-23T19:23:16.090Z,6.03
2022-12-23T19:25:52.687Z,6.08
2022-12-23T19:28:23.025Z,6.09
2022-12-23T19:30:50.548Z,6.08
2022-12-23T19:33:17.668Z,6.09
2022-12-23T19:35:44.823Z,6.13
2022-12-23T19:38:12.563Z,6.14
2022-12-23T19:40:40.573Z,6.17
2022-12-23T19:43:08.050Z,6.20
2022-12-23T19:45:35.088Z,6.23
2022-12-23T19:48:02.127Z,6.29
2022-12-23T19:50:29.244Z,6.29
2022-12-23T19:52:56.806Z,6.30
2022-12-23T19:55:24.051Z,6.32
2022-12-23T19:57:52.194Z,6.38
2022-12-23T20:00:19.395Z,6.42
2022-12-23T20:02:46.754Z,6.55
2022-12-23T20:05:13.861Z,6.53
2022-12-23T20:07:40.952Z,6.47
2022-12-23T20:10:08.382Z,6.47
2022-12-23T20:12:35.447Z,6.42
2022-12-23T20:15:02.593Z,6.37
2022-12-23T20:17:29.661Z,6.38
2022-12-23T20:19:56.922Z,6.35
2022-12-23T20:22:24.039Z,6.37
2022-12-23T20:24:51.249Z,6.40
2022-12-23T20:27:24.257Z,6.38
2022-12-23T20:29:55.005Z,6.42
2022-12-23T20:32:22.090Z,6.38
2022-12-23T20:34:50.161Z,6.38
2022-12-23T20:37:17.700Z,6.34
2022-12-23T20:39:44.821Z,6.32
2022-12-23T20:42:11.966Z,6.31
2022-12-23T20:44:39.119Z,6.31
2022-12-23T20:47:06.542Z,6.31
2022-12-23T20:49:33.675Z,6.30
2022-12-23T20:52:01.021Z,6.26
2022-12-23T20:54:33.333Z,6.27
2022-12-23T20:57:01.466Z,6.30
2022-12-23T20:59:28.766Z,6.30
2022-12-23T21:01:58.711Z,6.31
2022-12-23T21:04:25.915Z,6.32
2022-12-23T21:06:53.168Z,6.30
2022-12-23T21:09:20.389Z,6.27
2022-12-23T21:11:47.903Z,6.26
2022-12-23T21:14:15.367Z,6.24
2022-12-23T21:16:43.043Z,6.25
2022-12-23T21:19:13.827Z,6.24
2022-12-23T21:21:41.018Z,6.23
2022-12-23T21:24:09.602Z,6.27
2022-12-23T21:26:36.892Z,6.30
2022-12-23T21:29:05.135Z,6.28
2022-12-23T21:31:33.742Z,6.29
2022-12-23T21:34:01.130Z,6.30
2022-12-23T21:36:31.188Z,6.30
2022-12-23T21:38:59.276Z,6.34
2022-12-23T21:41:27.918Z,6.36
2022-12-23T21:43:59.043Z,6.38
2022-12-23T21:46:26.796Z,6.41
2022-12-23T21:48:55.136Z,6.46
2022-12-23T21:51:25.888Z,6.49
2022-12-23T21:53:53.923Z,6.51
2022-12-23T21:56:22.408Z,6.54
2022-12-23T21:58:49.876Z,6.64
2022-12-23T22:01:18.565Z,6.62
2022-12-23T22:03:46.967Z,6.66
2022-12-23T22:06:15.735Z,6.71
2022-12-23T22:08:42.906Z,6.70
2022-12-23T22:11:11.537Z,6.67
2022-12-23T22:13:38.819Z,6.61
2022-12-23T22:16:09.025Z,6.58
2022-12-23T22:18:36.672Z,6.58
2022-12-23T22:21:07.798Z,6.53
2022-12-23T22:23:35.336Z,6.50
2022-12-23T22:26:02.519Z,6.47
2022-12-23T22:28:30.590Z,6.49
2022-12-23T22:31:01.866Z,6.48
2022-12-23T22:33:28.894Z,6.47
2022-12-23T22:35:56.743Z,6.47
2022-12-23T22:38:24.011Z,6.46
2022-12-23T22:40:51.752Z,6.46
2022-12-23T22:43:19.502Z,6.44
2022-12-23T22:45:46.890Z,6.44
2022-12-23T22:48:14.243Z,6.45
2022-12-23T22:50:41.266Z,6.48
2022-12-23T22:53:10.701Z,6.47
2022-12-23T22:55:37.724Z,6.46
2022-12-23T22:58:04.822Z,6.40
2022-12-23T23:00:32.095Z,6.40
2022-12-23T23:02:59.121Z,6.40
2022-12-23T23:05:26.340Z,6.38
2022-12-23T23:07:53.434Z,6.37
2022-12-23T23:10:20.655Z,6.35
2022-12-23T23:12:47.824Z,6.36
2022-12-23T23:15:14.943Z,6.36
2022-12-23T23:17:42.041Z,6.39
2022-12-23T23:20:09.411Z,6.40
2022-12-23T23:22:36.494Z,6.44
2022-12-23T23:25:03.751Z,6.45
2022-12-23T23:27:30.776Z,6.46
2022-12-23T23:29:58.051Z,6.44
2022-12-23T23:32:25.151Z,6.43
2022-12-23T23:34:52.243Z,6.42
2022-12-23T23:37:19.412Z,6.42
2022-12-23T23:39:46.396Z,6.42
2022-12-23T23:42:16.787Z,6.38
2022-12-23T23:44:43.918Z,6.39
2022-12-23T23:47:10.895Z,6.37
2022-12-23T23:49:37.981Z,6.35
2022-12-23T23:52:05.018Z,6.35
2022-12-23T23:54:32.157Z,6.34
2022-12-23T23:56:59.231Z,6.32
2022-12-23T23:59:26.320Z,6.36
